Terminal Aerodrome Forecast
Issued by NWS

Home | Current Version | Previous Version | Text Only | Print | Product List | Glossary On
Versions: 1 2 3 4 5 6 7 8 9 10 11 12 13
000
FTUS45 KREV 061121
TAFMMH
TAF
KMMH 061121Z 0612/0712 VRB03KT P6SM SKC
     FM061600 12006KT P6SM FEW060 SCT100
     FM062000 12010KT P6SM VCSH SCT060 BKN100
     FM070200 28008KT P6SM SCT070 BKN140
     FM070500 32006KT P6SM FEW070 SCT140 BKN180=

USA.gov is the U.S. government's official web portal to all federal, state and local government web resources and services.